Time;durP1;ratioP1;P1;durP2;ratioP2;P2;SDS_P1;SDS_P2;PMS_P1;PMS_P2;Temp;Humidity;BMP_temperature;BMP_pressure;BME280_temperature;BME280_humidity;BME280_pressure;Samples;Min_cycle;Max_cycle;Signal;HPM_P1;HPM_P2
2023/06/10 00:00:47;;;;;;;14.57;9.70;;;;;;;25.62;48.52;101608.03;5007630;28;20058;-32
2023/06/10 00:03:14;;;;;;;13.52;9.70;;;;;;;25.62;48.68;101600.72;5008630;28;20448;-32
2023/06/10 00:05:41;;;;;;;13.60;10.05;;;;;;;25.62;48.69;101611.56;5006713;28;20059;-33
2023/06/10 00:08:07;;;;;;;14.25;9.43;;;;;;;25.60;48.35;101609.03;5008447;28;20418;-32
2023/06/10 00:10:35;;;;;;;15.15;9.43;;;;;;;25.60;48.99;101609.03;5006348;28;20078;-31
2023/06/10 00:13:08;;;;;;;13.38;9.77;;;;;;;25.59;48.78;101614.66;5004165;28;20049;-31
2023/06/10 00:15:35;;;;;;;12.38;9.00;;;;;;;25.59;48.64;101614.66;5005343;28;20134;-31
2023/06/10 00:18:03;;;;;;;17.35;9.98;;;;;;;25.58;48.54;101613.81;4999831;28;20050;-32
2023/06/10 00:20:30;;;;;;;14.23;9.48;;;;;;;25.57;48.97;101619.44;5005570;28;20041;-32
2023/06/10 00:23:01;;;;;;;14.10;9.73;;;;;;;25.56;49.26;101617.72;5006409;28;20049;-32
2023/06/10 00:25:28;;;;;;;12.38;9.02;;;;;;;25.55;49.03;101622.31;5008575;28;20092;-32
2023/06/10 00:27:55;;;;;;;12.00;9.13;;;;;;;25.54;48.91;101620.63;5003328;28;20137;-31
2023/06/10 00:30:22;;;;;;;15.45;9.13;;;;;;;25.53;48.98;101612.69;5003081;28;20086;-32
2023/06/10 00:32:48;;;;;;;12.93;8.57;;;;;;;25.51;49.38;101621.00;5006128;28;20046;-32
2023/06/10 00:35:15;;;;;;;13.27;9.27;;;;;;;25.50;49.20;101618.47;5005956;28;20057;-31
2023/06/10 00:37:42;;;;;;;13.50;9.35;;;;;;;25.49;48.88;101620.34;5003511;28;20057;-31
2023/06/10 00:40:09;;;;;;;14.13;9.38;;;;;;;25.49;49.21;101623.06;5019431;28;20084;-31
2023/06/10 00:42:36;;;;;;;13.45;9.38;;;;;;;25.48;49.37;101623.25;5004162;28;20053;-33
2023/06/10 00:45:03;;;;;;;15.07;9.82;;;;;;;25.45;49.26;101619.03;5002396;28;20446;-32
2023/06/10 00:47:30;;;;;;;12.35;9.05;;;;;;;25.43;48.94;101623.78;4997878;28;20347;-32
2023/06/10 00:49:59;;;;;;;12.52;9.55;;;;;;;25.42;49.31;101619.41;5004170;28;20127;-31
2023/06/10 00:52:29;;;;;;;14.52;9.07;;;;;;;25.42;49.21;101622.13;5001302;28;20050;-32
2023/06/10 00:54:56;;;;;;;12.38;8.40;;;;;;;25.42;49.40;101624.81;5000506;28;20058;-32
2023/06/10 00:57:22;;;;;;;13.18;9.20;;;;;;;25.40;49.17;101618.72;5000345;28;20054;-32
2023/06/10 00:59:49;;;;;;;13.02;8.77;;;;;;;25.39;48.94;101614.34;5003413;28;20088;-32
2023/06/10 01:02:16;;;;;;;12.57;8.95;;;;;;;25.38;49.15;101619.97;5003929;28;20050;-31
2023/06/10 01:04:43;;;;;;;13.85;8.88;;;;;;;25.35;49.31;101611.13;5003987;28;20101;-32
2023/06/10 01:07:23;;;;;;;14.10;9.05;;;;;;;25.33;49.71;101621.34;5002768;28;20452;-31
2023/06/10 01:10:06;;;;;;;14.30;9.23;;;;;;;25.32;49.34;101621.50;5002920;28;20054;-33
2023/06/10 01:13:02;;;;;;;11.85;8.63;;;;;;;25.31;49.50;101619.84;5004928;28;20476;-32
2023/06/10 01:15:31;;;;;;;13.95;9.10;;;;;;;25.30;49.65;101629.00;5004020;28;20136;-33
2023/06/10 01:18:01;;;;;;;13.02;8.18;;;;;;;25.29;49.57;101628.16;4998566;28;20076;-32
2023/06/10 01:20:31;;;;;;;12.63;9.23;;;;;;;25.28;49.59;101628.34;5005899;28;20053;-32
2023/06/10 01:22:59;;;;;;;11.85;8.13;;;;;;;25.26;49.51;101628.53;5005947;28;20058;-32
2023/06/10 01:25:27;;;;;;;11.90;8.57;;;;;;;25.25;49.57;101631.44;5007069;28;20050;-32
2023/06/10 01:28:09;;;;;;;13.32;8.52;;;;;;;25.22;49.89;101621.78;5000749;28;20045;-31
2023/06/10 01:30:47;;;;;;;10.38;8.02;;;;;;;25.22;49.47;101629.09;5002713;28;20054;-31
2023/06/10 01:33:17;;;;;;;12.23;8.38;;;;;;;25.22;49.97;101632.63;5003965;28;20050;-32
2023/06/10 01:35:44;;;;;;;12.25;8.40;;;;;;;25.20;49.70;101623.81;5004213;28;20077;-31
2023/06/10 01:38:14;;;;;;;12.40;8.73;;;;;;;25.19;49.46;101626.72;5005848;28;20296;-31
2023/06/10 01:40:42;;;;;;;10.52;8.10;;;;;;;25.18;49.61;101622.34;5003885;28;20842;-32
2023/06/10 01:43:08;;;;;;;13.63;8.55;;;;;;;25.16;49.86;101627.09;5001811;28;20394;-32
2023/06/10 01:45:35;;;;;;;10.45;7.57;;;;;;;25.14;49.86;101630.00;5003425;28;20449;-32
2023/06/10 01:48:02;;;;;;;13.75;8.50;;;;;;;25.11;50.04;101617.63;5001260;28;20057;-31
2023/06/10 01:50:29;;;;;;;12.38;7.60;;;;;;;25.11;50.17;101620.34;5004458;28;20046;-32
2023/06/10 01:52:58;;;;;;;11.95;7.88;;;;;;;25.11;49.99;101630.34;5004588;28;20176;-31
2023/06/10 01:55:24;;;;;;;12.40;7.82;;;;;;;25.08;49.93;101627.97;5003303;28;20149;-32
2023/06/10 01:57:51;;;;;;;10.05;7.38;;;;;;;25.08;50.31;101627.97;5003622;28;20180;-32
2023/06/10 02:00:18;;;;;;;10.63;7.57;;;;;;;25.06;50.13;101632.72;5006666;28;20057;-32
2023/06/10 02:02:45;;;;;;;10.73;7.25;;;;;;;25.05;49.95;101631.91;5009786;28;20085;-32
2023/06/10 02:05:11;;;;;;;11.10;7.53;;;;;;;25.04;50.15;101632.91;5005588;28;20056;-31
2023/06/10 02:07:38;;;;;;;11.35;8.05;;;;;;;25.03;50.17;101623.09;5004355;28;20081;-31
2023/06/10 02:10:06;;;;;;;10.90;7.95;;;;;;;25.01;50.02;101630.56;5003580;28;20096;-32
2023/06/10 02:12:32;;;;;;;11.48;8.15;;;;;;;25.02;49.91;101628.69;5004276;28;20054;-31
2023/06/10 02:14:59;;;;;;;11.13;8.00;;;;;;;25.01;49.86;101630.56;5004069;28;20401;-33
2023/06/10 02:17:26;;;;;;;12.95;8.35;;;;;;;25.00;50.31;101630.72;5003733;28;20061;-31
2023/06/10 02:19:53;;;;;;;10.02;7.18;;;;;;;25.00;50.21;101631.56;5001961;28;20060;-31
2023/06/10 02:22:21;;;;;;;10.77;7.65;;;;;;;24.99;50.30;101629.06;4998849;28;20136;-31
2023/06/10 02:24:47;;;;;;;10.43;7.65;;;;;;;24.97;50.25;101636.53;5006808;28;20142;-32
2023/06/10 02:27:15;;;;;;;9.45;7.00;;;;;;;24.97;50.00;101637.38;4999570;28;20053;-32
2023/06/10 02:29:43;;;;;;;10.20;7.18;;;;;;;24.95;49.79;101636.69;5002464;28;20050;-32
2023/06/10 02:32:10;;;;;;;8.55;6.53;;;;;;;24.95;49.88;101639.41;5000397;28;20483;-32
2023/06/10 02:34:37;;;;;;;11.27;7.55;;;;;;;24.93;50.18;101636.06;5003368;28;20060;-32
2023/06/10 02:37:04;;;;;;;12.02;7.97;;;;;;;24.95;50.02;101635.88;5003412;28;20049;-31
2023/06/10 02:39:31;;;;;;;10.30;7.28;;;;;;;24.93;49.72;101637.94;5001410;28;20092;-31
2023/06/10 02:41:57;;;;;;;8.65;6.80;;;;;;;24.92;50.06;101642.47;5001069;28;20053;-32
2023/06/10 02:44:24;;;;;;;10.70;7.38;;;;;;;24.91;49.92;101639.97;5000832;28;20176;-32
2023/06/10 02:46:51;;;;;;;9.82;6.95;;;;;;;24.90;49.80;101641.00;5002839;28;20073;-31
2023/06/10 02:49:17;;;;;;;10.13;7.00;;;;;;;24.89;49.88;101636.59;5003114;28;20050;-32
2023/06/10 02:51:44;;;;;;;9.27;7.20;;;;;;;24.87;50.04;101637.59;5001275;28;20046;-31
2023/06/10 02:54:10;;;;;;;9.90;6.95;;;;;;;24.86;49.78;101641.34;5001235;28;20097;-32
2023/06/10 02:56:41;;;;;;;9.75;6.78;;;;;;;24.85;49.66;101638.81;5002412;28;20065;-32
2023/06/10 02:59:08;;;;;;;9.25;7.07;;;;;;;24.85;49.87;101638.81;4997792;28;20042;-32
2023/06/10 03:01:36;;;;;;;11.30;6.93;;;;;;;24.86;50.30;101640.50;5000941;28;20053;-33
2023/06/10 03:04:07;;;;;;;9.32;6.50;;;;;;;24.84;50.13;101639.81;5002603;28;20649;-31
2023/06/10 03:06:33;;;;;;;10.68;7.15;;;;;;;24.84;49.92;101634.41;5001069;28;20399;-31
2023/06/10 03:09:00;;;;;;;8.32;6.70;;;;;;;24.83;49.76;101643.56;5001165;28;20097;-32
2023/06/10 03:11:27;;;;;;;9.65;6.60;;;;;;;24.82;50.17;101637.31;5002539;28;20050;-32
2023/06/10 03:13:54;;;;;;;9.50;6.45;;;;;;;24.80;50.34;101636.63;5002414;28;20371;-31
2023/06/10 03:16:20;;;;;;;9.48;7.10;;;;;;;24.80;49.75;101638.50;5002154;28;20050;-32
2023/06/10 03:18:48;;;;;;;8.63;6.35;;;;;;;24.80;50.04;101643.91;5001916;28;20050;-31
2023/06/10 03:21:15;;;;;;;9.85;6.60;;;;;;;24.80;49.79;101641.22;5002934;28;20050;-32
2023/06/10 03:23:41;;;;;;;10.05;6.50;;;;;;;24.79;49.69;101637.66;5002500;28;20088;-31
2023/06/10 03:26:09;;;;;;;7.75;6.22;;;;;;;24.80;50.35;101638.50;4998404;28;20053;-31
2023/06/10 03:28:36;;;;;;;10.15;6.72;;;;;;;24.78;49.87;101641.41;5002367;28;20043;-32
2023/06/10 03:31:03;;;;;;;10.02;6.05;;;;;;;24.79;49.99;101644.94;5002423;28;20058;-32
2023/06/10 03:33:29;;;;;;;9.55;6.60;;;;;;;24.79;49.83;101647.66;5000335;28;20060;-32
2023/06/10 03:35:56;;;;;;;8.93;5.97;;;;;;;24.78;50.32;101651.41;5003444;28;20137;-31
2023/06/10 03:38:23;;;;;;;9.32;6.20;;;;;;;24.78;49.76;101637.84;4998768;28;20675;-32
2023/06/10 03:40:49;;;;;;;10.88;5.53;;;;;;;24.78;50.46;101645.97;4998291;28;20054;-31
2023/06/10 03:43:16;;;;;;;9.88;6.60;;;;;;;24.78;49.89;101645.97;5003153;28;20132;-32
2023/06/10 03:45:42;;;;;;;12.35;6.00;;;;;;;24.77;50.02;101649.72;5000180;28;20133;-32
2023/06/10 03:48:10;;;;;;;8.55;5.97;;;;;;;24.76;50.65;101643.44;5000808;28;20602;-32
2023/06/10 03:50:37;;;;;;;14.63;6.28;;;;;;;24.76;50.53;101653.44;5002294;28;20050;-31
2023/06/10 03:53:04;;;;;;;12.80;6.40;;;;;;;24.77;50.07;101652.44;5002766;28;20142;-34
2023/06/10 03:55:31;;;;;;;8.98;5.95;;;;;;;24.76;49.96;101656.16;5004495;28;20049;-31
2023/06/10 03:57:58;;;;;;;15.82;6.32;;;;;;;24.76;50.29;101656.16;4998521;28;20050;-31
2023/06/10 04:00:25;;;;;;;7.85;5.85;;;;;;;24.76;50.57;101659.69;5002691;28;20346;-32
2023/06/10 04:02:52;;;;;;;7.82;5.53;;;;;;;24.75;50.11;101662.59;4999980;28;20134;-31
2023/06/10 04:05:22;;;;;;;8.95;6.15;;;;;;;24.75;50.17;101660.72;4998926;28;20450;-32
2023/06/10 04:07:49;;;;;;;8.93;5.97;;;;;;;24.75;49.87;101663.44;4996510;28;20045;-32
2023/06/10 04:10:16;;;;;;;8.63;5.25;;;;;;;24.75;50.19;101668.88;5000740;28;20116;-33
2023/06/10 04:12:44;;;;;;;9.27;6.03;;;;;;;24.75;49.98;101662.59;4997419;28;20072;-31
2023/06/10 04:15:11;;;;;;;6.90;5.55;;;;;;;24.75;50.34;101659.88;4997466;28;20401;-33
2023/06/10 04:17:38;;;;;;;8.93;5.88;;;;;;;24.74;50.04;101661.75;4998091;28;20069;-31
2023/06/10 04:20:07;;;;;;;6.65;5.05;;;;;;;24.74;49.79;101661.75;5001012;28;20054;-32
2023/06/10 04:22:34;;;;;;;6.43;5.10;;;;;;;24.75;50.33;101676.16;4996836;28;20053;-31
2023/06/10 04:25:00;;;;;;;8.48;5.90;;;;;;;24.75;49.80;101668.03;5000830;28;20490;-32
2023/06/10 04:27:27;;;;;;;8.32;5.70;;;;;;;24.74;50.45;101679.91;5002246;28;20419;-31
2023/06/10 04:29:54;;;;;;;7.88;5.85;;;;;;;24.75;50.33;101685.13;4997799;28;20053;-32
2023/06/10 04:32:21;;;;;;;8.10;5.20;;;;;;;24.74;49.99;101683.44;5002903;28;20107;-31
2023/06/10 04:34:48;;;;;;;9.30;5.68;;;;;;;24.74;50.22;101683.44;5000714;28;20065;-32
2023/06/10 04:37:15;;;;;;;9.35;5.57;;;;;;;24.75;50.12;101687.00;5000648;28;20192;-32
2023/06/10 04:39:41;;;;;;;9.32;5.70;;;;;;;24.75;50.18;101685.13;4999687;28;20081;-31
2023/06/10 04:42:08;;;;;;;9.60;5.25;;;;;;;24.75;49.92;101685.13;4999661;28;20093;-32
2023/06/10 04:44:35;;;;;;;7.75;5.43;;;;;;;24.76;50.15;101685.97;4998167;28;20050;-32
2023/06/10 04:47:01;;;;;;;6.95;5.15;;;;;;;24.78;50.29;101689.38;5002491;28;20053;-31
2023/06/10 04:49:29;;;;;;;6.75;5.13;;;;;;;24.78;50.07;101690.19;4995980;28;20422;-31
2023/06/10 04:51:56;;;;;;;6.72;4.97;;;;;;;24.79;49.97;101689.16;5000817;28;20345;-31
2023/06/10 04:54:22;;;;;;;6.38;4.50;;;;;;;24.81;49.93;101694.44;5002173;28;20403;-32
2023/06/10 04:56:49;;;;;;;7.13;4.88;;;;;;;24.84;50.07;101694.06;4998167;28;20057;-31
2023/06/10 04:59:16;;;;;;;5.95;4.82;;;;;;;24.85;49.83;101693.91;4998973;28;20328;-32
2023/06/10 05:01:42;;;;;;;8.75;5.07;;;;;;;24.88;49.47;101695.38;5002656;28;20488;-32
2023/06/10 05:04:09;;;;;;;7.50;5.40;;;;;;;24.90;49.86;101695.22;4998881;28;20505;-31
2023/06/10 05:06:36;;;;;;;6.68;5.03;;;;;;;24.92;49.99;101696.72;4999180;28;20050;-32
2023/06/10 05:09:03;;;;;;;6.70;4.63;;;;;;;24.94;49.68;101697.41;4990308;28;21010;-31
2023/06/10 05:11:30;;;;;;;13.40;6.00;;;;;;;24.96;49.87;101694.50;5026670;28;20382;-31
2023/06/10 05:13:56;;;;;;;13.73;5.97;;;;;;;24.97;49.32;101691.63;4996615;28;20461;-32
2023/06/10 05:16:23;;;;;;;19.48;5.57;;;;;;;25.00;49.74;101693.13;4999130;28;20055;-33
2023/06/10 05:18:51;;;;;;;32.83;8.30;;;;;;;25.02;49.34;101699.22;4992997;28;20385;-32
2023/06/10 05:21:18;;;;;;;25.05;7.55;;;;;;;25.02;49.59;101691.94;4998687;28;20050;-32
2023/06/10 05:23:45;;;;;;;35.50;8.82;;;;;;;25.03;50.12;101690.91;5004321;28;20060;-32
2023/06/10 05:26:11;;;;;;;25.33;9.05;;;;;;;25.04;49.51;101689.88;5004727;28;20129;-32
2023/06/10 05:28:38;;;;;;;32.47;9.15;;;;;;;25.05;49.57;101691.56;4997631;28;20085;-32
2023/06/10 05:31:05;;;;;;;39.45;10.68;;;;;;;25.06;49.96;101690.53;4996726;28;20061;-32
2023/06/10 05:33:31;;;;;;;28.30;8.52;;;;;;;25.08;49.32;101687.63;5001435;28;20053;-32
2023/06/10 05:35:58;;;;;;;28.23;9.43;;;;;;;25.09;49.11;101694.81;5001113;28;20061;-32
2023/06/10 05:38:25;;;;;;;36.33;9.48;;;;;;;25.10;49.70;101688.34;5002730;28;20050;-32
2023/06/10 05:40:51;;;;;;;36.33;9.38;;;;;;;25.11;49.04;101690.88;4999183;28;20041;-32
2023/06/10 05:43:18;;;;;;;38.17;10.23;;;;;;;25.12;49.10;101691.72;5000980;28;20137;-31
2023/06/10 05:45:44;;;;;;;33.22;10.18;;;;;;;25.12;49.18;101697.13;5004306;28;20101;-32
2023/06/10 05:48:11;;;;;;;22.13;8.85;;;;;;;25.13;49.40;101692.56;5001578;28;20042;-31
2023/06/10 05:50:39;;;;;;;22.85;8.70;;;;;;;25.13;48.78;101701.56;4996336;28;20064;-33
2023/06/10 05:53:08;;;;;;;28.05;9.88;;;;;;;25.15;48.23;101704.09;4998019;28;20081;-32
2023/06/10 05:55:34;;;;;;;21.90;7.50;;;;;;;25.15;47.35;101701.38;5000922;28;20062;-32
2023/06/10 05:58:01;;;;;;;16.25;7.28;;;;;;;25.14;47.32;101697.81;4995151;28;20465;-31
2023/06/10 06:00:28;;;;;;;24.15;8.45;;;;;;;25.14;47.19;101697.81;4996419;28;20072;-32
2023/06/10 06:02:57;;;;;;;32.75;12.45;;;;;;;25.15;47.05;101709.50;4995488;28;20058;-32
2023/06/10 06:05:24;;;;;;;26.35;11.98;;;;;;;25.13;46.82;101704.28;4998181;28;20053;-33
2023/06/10 06:07:50;;;;;;;27.30;10.07;;;;;;;25.15;46.62;101712.22;4998552;28;20528;-32
2023/06/10 06:10:18;;;;;;;17.35;8.32;;;;;;;25.14;46.38;101705.97;5029221;28;20077;-31
2023/06/10 06:12:44;;;;;;;20.98;8.90;;;;;;;25.15;46.18;101706.78;4999631;28;20173;-31
2023/06/10 06:15:11;;;;;;;16.10;8.30;;;;;;;25.15;46.15;101706.78;5000249;28;20081;-32
2023/06/10 06:17:38;;;;;;;20.30;8.27;;;;;;;25.14;46.72;101697.81;4998884;28;20054;-33
2023/06/10 06:20:05;;;;;;;20.52;8.25;;;;;;;25.15;46.78;101701.38;4996602;28;20055;-32
2023/06/10 06:22:32;;;;;;;18.23;7.80;;;;;;;25.14;46.52;101697.81;4998363;28;20454;-32
2023/06/10 06:24:58;;;;;;;16.00;7.32;;;;;;;25.14;46.08;101697.81;4997449;28;20143;-32
2023/06/10 06:27:25;;;;;;;18.35;7.00;;;;;;;25.13;46.35;101696.13;4998137;28;20647;-33
2023/06/10 06:29:52;;;;;;;16.80;7.15;;;;;;;25.13;46.24;101698.84;4998585;28;20068;-31
2023/06/10 06:32:19;;;;;;;14.20;6.90;;;;;;;25.14;46.15;101705.97;5001971;28;20068;-32
2023/06/10 06:34:46;;;;;;;14.65;6.90;;;;;;;25.15;45.92;101695.94;5000189;28;20156;-31
2023/06/10 06:37:12;;;;;;;17.30;6.35;;;;;;;25.15;45.94;101698.66;4993575;28;20128;-32
2023/06/10 06:39:39;;;;;;;15.88;7.15;;;;;;;25.15;46.27;101696.78;4998277;28;20096;-31
2023/06/10 06:42:06;;;;;;;14.02;6.85;;;;;;;25.15;46.37;101698.66;4999531;28;20053;-31
2023/06/10 06:44:33;;;;;;;17.00;7.68;;;;;;;25.17;46.92;101699.34;5000079;28;20246;-31
2023/06/10 06:46:59;;;;;;;16.98;7.30;;;;;;;25.17;47.13;101694.75;5001934;28;20144;-32
2023/06/10 06:49:26;;;;;;;17.38;7.57;;;;;;;25.17;47.00;101693.91;4998236;28;20048;-32
2023/06/10 06:51:52;;;;;;;17.55;7.78;;;;;;;25.18;46.75;101699.13;4994094;28;20050;-32
2023/06/10 06:54:19;;;;;;;13.00;7.18;;;;;;;25.19;47.24;101699.97;4994776;28;20132;-31
2023/06/10 06:56:45;;;;;;;16.25;8.00;;;;;;;25.19;47.14;101705.41;4998426;28;20054;-32
2023/06/10 06:59:13;;;;;;;14.35;6.53;;;;;;;25.20;47.31;101712.50;4998452;28;21045;-31
2023/06/10 07:01:40;;;;;;;19.55;6.60;;;;;;;25.19;47.26;101711.69;4999040;28;20101;-32
2023/06/10 07:04:07;;;;;;;15.13;7.55;;;;;;;25.20;46.64;101712.50;4997378;28;20073;-32
2023/06/10 07:06:33;;;;;;;18.13;7.55;;;;;;;25.19;47.28;101708.97;4998062;28;20058;-33
2023/06/10 07:09:04;;;;;;;13.23;7.20;;;;;;;25.21;47.53;101714.22;5000067;28;20046;-31
2023/06/10 07:11:31;;;;;;;12.93;7.28;;;;;;;25.20;47.45;101709.81;4994052;28;20104;-31
2023/06/10 07:13:57;;;;;;;15.95;7.03;;;;;;;25.22;47.25;101713.19;4996067;28;20468;-32
2023/06/10 07:16:24;;;;;;;14.43;8.05;;;;;;;25.22;47.81;101713.19;4996269;28;20073;-31
2023/06/10 07:18:52;;;;;;;17.17;6.55;;;;;;;25.22;47.62;101713.19;4997775;28;20048;-32
2023/06/10 07:21:19;;;;;;;15.50;6.60;;;;;;;25.22;47.53;101711.31;4994956;28;20089;-33
2023/06/10 07:23:46;;;;;;;14.13;6.65;;;;;;;25.23;47.67;101714.88;4996473;28;20096;-32
2023/06/10 07:26:13;;;;;;;12.57;7.10;;;;;;;25.24;47.35;101711.13;4997675;28;20426;-32
2023/06/10 07:28:41;;;;;;;13.98;6.70;;;;;;;25.25;47.98;101712.84;4995406;28;20338;-32
2023/06/10 07:31:08;;;;;;;11.55;6.07;;;;;;;25.25;47.64;101715.56;4995303;28;20119;-31
2023/06/10 07:33:36;;;;;;;11.88;6.13;;;;;;;25.24;47.64;101717.41;4995063;28;20155;-32
2023/06/10 07:36:03;;;;;;;12.20;6.63;;;;;;;25.25;47.60;101718.28;4990571;28;20116;-32
2023/06/10 07:38:30;;;;;;;12.70;6.90;;;;;;;25.25;47.25;101720.97;4999382;28;20058;-32
2023/06/10 07:40:56;;;;;;;10.90;6.35;;;;;;;25.25;47.49;101718.28;4993212;28;20047;-32
2023/06/10 07:43:24;;;;;;;13.80;7.32;;;;;;;25.25;47.41;101721.81;4994408;28;20050;-32
2023/06/10 07:45:51;;;;;;;21.55;8.38;;;;;;;25.27;47.46;101722.47;4996595;28;20058;-32
2023/06/10 07:48:18;;;;;;;14.95;7.30;;;;;;;25.28;47.41;101724.16;4994330;28;20149;-33
2023/06/10 07:50:44;;;;;;;12.55;6.40;;;;;;;25.29;47.74;101722.31;4994028;28;20169;-32
2023/06/10 07:53:11;;;;;;;14.48;7.82;;;;;;;25.28;47.49;101726.88;5001885;28;20113;-32
2023/06/10 07:55:37;;;;;;;18.80;7.65;;;;;;;25.30;47.77;101726.72;4998186;28;20448;-32
2023/06/10 07:58:04;;;;;;;24.05;8.05;;;;;;;25.30;47.50;101726.72;4997309;28;20050;-32
2023/06/10 08:00:31;;;;;;;13.63;7.38;;;;;;;25.30;47.51;101726.72;5003647;28;20380;-32
2023/06/10 08:02:57;;;;;;;16.65;7.65;;;;;;;25.30;47.70;101730.25;5000095;28;20049;-32
2023/06/10 08:05:24;;;;;;;16.50;7.25;;;;;;;25.30;47.93;101738.41;4993771;28;20074;-32
2023/06/10 08:07:51;;;;;;;14.02;7.45;;;;;;;25.30;47.96;101730.25;4999378;28;20472;-32
2023/06/10 08:10:17;;;;;;;22.95;7.38;;;;;;;25.30;47.50;101724.84;4997361;28;20046;-32
2023/06/10 08:12:44;;;;;;;16.30;7.45;;;;;;;25.32;47.57;101732.78;4998301;28;20254;-32
2023/06/10 08:15:11;;;;;;;15.93;7.25;;;;;;;25.32;47.62;101727.34;4995058;28;20520;-32
2023/06/10 08:17:38;;;;;;;14.23;7.32;;;;;;;25.31;47.71;101721.09;4994098;28;20054;-32
2023/06/10 08:20:06;;;;;;;11.00;6.72;;;;;;;25.32;47.61;101724.63;4999223;28;20073;-32
2023/06/10 08:22:33;;;;;;;15.20;7.13;;;;;;;25.32;47.73;101720.06;4995549;28;20050;-32
2023/06/10 08:25:00;;;;;;;14.45;6.40;;;;;;;25.32;47.67;101721.94;4999780;28;20352;-33
2023/06/10 08:27:27;;;;;;;14.90;7.05;;;;;;;25.32;47.16;101719.22;4994819;28;20053;-33
2023/06/10 08:29:53;;;;;;;14.52;6.93;;;;;;;25.31;47.69;101718.38;4992693;28;20148;-32
2023/06/10 08:32:20;;;;;;;15.65;7.30;;;;;;;25.32;47.12;101724.63;4995668;28;20057;-32
2023/06/10 08:34:47;;;;;;;14.05;6.72;;;;;;;25.33;47.60;101720.94;4990969;28;20093;-32
2023/06/10 08:37:13;;;;;;;14.00;7.70;;;;;;;25.32;47.37;101724.63;4996138;28;20050;-32
2023/06/10 08:39:40;;;;;;;14.52;7.32;;;;;;;25.33;47.42;101716.34;4990676;28;20137;-32
2023/06/10 08:42:07;;;;;;;11.93;6.05;;;;;;;25.32;47.46;101720.06;4987813;28;20129;-32
2023/06/10 08:44:38;;;;;;;11.50;6.30;;;;;;;25.33;47.50;101716.34;4992007;28;20426;-33
2023/06/10 08:47:16;;;;;;;11.45;6.30;;;;;;;25.33;47.60;101726.34;4989111;28;20054;-32
2023/06/10 08:49:45;;;;;;;10.88;6.75;;;;;;;25.35;47.46;101718.84;4989179;28;20045;-32
2023/06/10 08:52:17;;;;;;;11.98;6.95;;;;;;;25.34;47.50;101728.03;4993405;28;20077;-32
2023/06/10 08:54:58;;;;;;;10.57;5.93;;;;;;;25.34;47.64;101722.59;4991076;28;21532;-32
2023/06/10 08:57:26;;;;;;;10.82;6.65;;;;;;;25.35;47.25;101721.56;4988513;28;20054;-34
2023/06/10 08:59:54;;;;;;;11.18;6.72;;;;;;;25.35;47.44;101725.13;4994953;28;20105;-32
2023/06/10 09:02:22;;;;;;;8.23;5.65;;;;;;;25.36;47.36;101729.53;4986944;28;20351;-33
2023/06/10 09:04:49;;;;;;;11.43;5.63;;;;;;;25.37;47.40;101727.69;4985444;28;20642;-33
2023/06/10 09:07:16;;;;;;;11.82;5.90;;;;;;;25.38;47.23;101723.09;4989750;28;20457;-33
2023/06/10 09:09:44;;;;;;;10.18;6.15;;;;;;;25.37;47.65;101722.25;4990625;28;20046;-33
2023/06/10 09:12:13;;;;;;;9.85;6.30;;;;;;;25.39;47.22;101722.91;4994820;28;20049;-33
2023/06/10 09:14:40;;;;;;;11.38;5.45;;;;;;;25.40;47.53;101727.28;4994245;28;20108;-33
2023/06/10 09:17:07;;;;;;;11.40;6.85;;;;;;;25.42;47.22;101724.41;4993116;28;21601;-32
2023/06/10 09:19:35;;;;;;;13.27;6.93;;;;;;;25.43;46.99;101731.53;4992242;28;20133;-32
2023/06/10 09:22:02;;;;;;;10.23;5.20;;;;;;;25.45;47.06;101727.63;4995294;28;20050;-33
2023/06/10 09:24:29;;;;;;;9.23;5.97;;;;;;;25.46;47.26;101731.16;4990995;28;20085;-32
2023/06/10 09:27:07;;;;;;;10.00;5.63;;;;;;;25.48;47.37;101724.50;4994154;28;20060;-32
2023/06/10 09:29:47;;;;;;;9.95;6.25;;;;;;;25.52;47.33;101719.56;4994107;28;20100;-39
2023/06/10 09:32:16;;;;;;;11.20;6.10;;;;;;;25.54;47.10;101720.25;4960112;28;1105707;-32
2023/06/10 09:34:44;;;;;;;14.02;6.13;;;;;;;25.56;47.16;101724.44;4995022;28;20501;-32
2023/06/10 09:37:12;;;;;;;10.05;5.28;;;;;;;25.59;47.16;101729.53;4994576;28;20414;-32
2023/06/10 09:39:40;;;;;;;7.03;4.85;;;;;;;25.62;47.18;101719.34;4993530;28;20121;-32
2023/06/10 09:42:19;;;;;;;10.88;5.57;;;;;;;25.66;47.58;101723.38;4997923;28;20465;-32
2023/06/10 09:44:52;;;;;;;8.50;5.22;;;;;;;25.68;46.98;101730.28;4989487;28;20049;-32
2023/06/10 09:47:22;;;;;;;11.25;6.03;;;;;;;25.72;47.17;101719.91;4995569;28;20047;-32
2023/06/10 09:49:53;;;;;;;9.10;5.93;;;;;;;25.76;46.94;101721.22;4998524;28;20053;-37
2023/06/10 09:52:24;;;;;;;9.70;5.35;;;;;;;25.77;46.77;101723.81;4992579;28;20076;-34
2023/06/10 09:54:52;;;;;;;11.77;5.75;;;;;;;25.81;47.13;101724.28;4985480;28;20458;-33
2023/06/10 09:57:22;;;;;;;8.07;5.80;;;;;;;25.83;46.88;101727.66;4998417;28;20838;-32
2023/06/10 09:59:52;;;;;;;11.50;5.47;;;;;;;25.86;46.79;101724.56;5001278;28;20061;-33
2023/06/10 10:02:19;;;;;;;11.00;5.65;;;;;;;25.88;46.65;101717.06;5000139;28;20047;-32
2023/06/10 10:04:46;;;;;;;11.10;5.18;;;;;;;25.91;46.90;101718.59;4999378;28;20054;-33
2023/06/10 10:07:13;;;;;;;7.65;5.15;;;;;;;25.94;46.38;101715.50;5004370;28;20093;-33
2023/06/10 10:09:41;;;;;;;7.68;4.97;;;;;;;25.95;46.64;101723.47;5005250;28;20109;-33
2023/06/10 10:12:15;;;;;;;7.47;4.90;;;;;;;25.97;46.52;101713.25;5007084;28;20054;-33
2023/06/10 10:14:47;;;;;;;8.13;4.82;;;;;;;26.00;46.93;101712.88;5004514;28;20047;-33
2023/06/10 10:17:15;;;;;;;7.45;4.90;;;;;;;26.02;46.65;101708.13;4994674;28;20050;-32
2023/06/10 10:19:53;;;;;;;7.30;4.75;;;;;;;26.04;46.65;101711.47;5006869;28;20062;-32
2023/06/10 10:22:29;;;;;;;7.75;4.57;;;;;;;26.06;46.71;101700.44;4998356;28;20050;-32
2023/06/10 10:24:59;;;;;;;8.43;4.38;;;;;;;26.08;46.58;101709.22;5002315;28;20050;-32
2023/06/10 10:27:35;;;;;;;7.78;5.38;;;;;;;26.09;46.66;101709.06;4995732;28;20050;-32
2023/06/10 10:30:08;;;;;;;8.50;5.50;;;;;;;26.12;46.80;101704.25;4996527;28;20046;-32
2023/06/10 10:32:40;;;;;;;9.43;4.55;;;;;;;26.15;46.68;101710.19;5000703;28;20054;-32
2023/06/10 10:35:23;;;;;;;6.10;4.47;;;;;;;26.15;46.47;101704.75;4996420;28;20691;-32
2023/06/10 10:37:52;;;;;;;6.80;4.40;;;;;;;26.20;46.67;101698.75;4999998;28;20058;-32
2023/06/10 10:40:21;;;;;;;5.97;4.05;;;;;;;26.20;46.60;101701.47;4999979;28;20050;-32
2023/06/10 10:42:51;;;;;;;6.72;4.32;;;;;;;26.22;46.46;101704.84;4998329;28;20087;-32
2023/06/10 10:45:18;;;;;;;6.90;4.38;;;;;;;26.23;46.53;101687.50;4999278;28;20046;-33
2023/06/10 10:47:46;;;;;;;7.53;4.47;;;;;;;26.25;46.27;101682.72;5001293;28;20048;-32
2023/06/10 10:50:18;;;;;;;6.15;4.38;;;;;;;26.27;46.51;101686.94;4998963;28;20056;-32
2023/06/10 10:52:53;;;;;;;5.57;4.03;;;;;;;26.28;46.50;101685.06;4997277;28;20058;-32
2023/06/10 10:55:20;;;;;;;7.10;4.38;;;;;;;26.31;46.53;101695.56;4997751;28;20053;-32
2023/06/10 10:58:15;;;;;;;6.15;4.20;;;;;;;26.30;46.44;101683.84;5026719;28;20050;-32
2023/06/10 11:00:45;;;;;;;8.40;4.38;;;;;;;26.34;46.56;101684.31;5001714;28;20104;-32
2023/06/10 11:03:16;;;;;;;5.90;4.10;;;;;;;26.36;46.38;101682.25;4998476;28;20080;-33
2023/06/10 11:05:49;;;;;;;9.75;4.53;;;;;;;26.37;46.52;101680.34;4999204;28;20058;-32
2023/06/10 11:08:43;;;;;;;7.70;4.30;;;;;;;26.37;46.14;101674.91;4997285;28;20715;-31
2023/06/10 11:11:20;;;;;;;;;;;;;;;26.40;46.40;101677.28;5002378;28;20081;-32
2023/06/10 11:14:04;;;;;;;6.25;4.15;;;;;;;26.44;46.38;101675.84;5000251;28;20329;-32
2023/06/10 11:16:41;;;;;;;7.43;4.05;;;;;;;26.45;46.22;101672.13;5004017;28;20096;-32
2023/06/10 11:19:09;;;;;;;8.05;4.15;;;;;;;26.45;46.35;101678.41;5004302;28;20053;-33
2023/06/10 11:22:02;;;;;;;6.07;3.90;;;;;;;26.45;46.17;101667.53;4999695;28;20106;-32
2023/06/10 11:24:30;;;;;;;6.38;3.75;;;;;;;26.50;46.20;101667.81;5004112;28;20103;-32